Time;durP1;ratioP1;P1;durP2;ratioP2;P2;SDS_P1;SDS_P2;PMS_P1;PMS_P2;Temp;Humidity;BMP_temperature;BMP_pressure;BME280_temperature;BME280_humidity;BME280_pressure;Samples;Min_cycle;Max_cycle;Signal;HPM_P1;HPM_P2
2023/04/02 00:00:35;;;;;;;23.55;17.98;;;6.50;99.90;;;;;;5027850;28;20281;-79
2023/04/02 00:03:03;;;;;;;21.75;17.95;;;6.50;99.90;;;;;;5009749;28;20040;-80
2023/04/02 00:05:49;;;;;;;22.33;17.38;;;6.50;99.90;;;;;;5014233;28;20041;-81
2023/04/02 00:08:23;;;;;;;19.35;16.90;;;6.40;99.90;;;;;;4998492;28;20040;-82
2023/04/02 00:10:58;;;;;;;20.05;16.73;;;6.40;99.90;;;;;;4995103;28;20043;-80
2023/04/02 00:13:35;;;;;;;21.00;16.42;;;6.40;99.90;;;;;;5009980;28;20063;-81
2023/04/02 00:16:05;;;;;;;21.95;17.38;;;6.30;99.90;;;;;;5017605;28;20032;-81
2023/04/02 00:18:33;;;;;;;19.40;15.93;;;6.30;99.90;;;;;;5016587;28;20036;-78
2023/04/02 00:21:07;;;;;;;19.60;15.02;;;6.30;99.90;;;;;;4997765;28;20519;-79
2023/04/02 00:23:40;;;;;;;17.90;15.30;;;6.30;99.90;;;;;;4992582;28;20472;-79
2023/04/02 00:26:33;;;;;;;18.80;16.83;;;6.30;99.90;;;;;;5013783;28;20037;-79
2023/04/02 00:29:03;;;;;;;19.83;15.57;;;6.30;99.90;;;;;;5028861;28;20825;-79
2023/04/02 00:31:30;;;;;;;19.90;16.58;;;6.30;99.90;;;;;;5033437;28;20479;-80
2023/04/02 00:33:59;;;;;;;19.63;16.17;;;6.30;99.90;;;;;;5015705;28;20047;-81
2023/04/02 00:36:29;;;;;;;22.13;16.30;;;6.30;99.90;;;;;;5006071;28;20047;-80
2023/04/02 00:38:58;;;;;;;20.38;17.20;;;6.30;99.90;;;;;;5025361;28;20055;-79
2023/04/02 00:41:28;;;;;;;21.63;16.65;;;6.30;99.90;;;;;;5007282;28;20036;-80
2023/04/02 00:43:56;;;;;;;17.27;15.45;;;6.30;99.90;;;;;;5001479;28;20027;-78
2023/04/02 00:46:30;;;;;;;20.55;18.05;;;6.30;99.90;;;;;;4987433;28;20041;-81
2023/04/02 00:49:09;;;;;;;21.95;16.50;;;6.40;99.90;;;;;;4999705;28;20043;-78
2023/04/02 00:51:40;;;;;;;19.38;17.27;;;6.40;99.90;;;;;;5013202;28;20751;-81
2023/04/02 00:54:14;;;;;;;19.80;17.67;;;6.30;99.90;;;;;;4994932;28;20075;-80
2023/04/02 00:56:53;;;;;;;21.88;17.55;;;6.30;99.90;;;;;;5020460;28;20546;-79
2023/04/02 00:59:30;;;;;;;18.88;16.80;;;6.30;99.90;;;;;;5022306;28;20036;-79
2023/04/02 01:02:17;;;;;;;23.48;18.50;;;6.30;99.90;;;;;;5014806;28;20043;-79
2023/04/02 01:04:59;;;;;;;16.90;15.13;;;6.30;99.90;;;;;;5020552;28;20033;-81
2023/04/02 01:08:01;;;;;;;16.10;14.47;;;6.30;99.90;;;;;;5000814;28;20044;-79
2023/04/02 01:10:42;;;;;;;19.15;16.77;;;6.30;99.90;;;;;;5016000;28;20044;-78
2023/04/02 01:13:23;;;;;;;19.67;17.23;;;6.20;99.90;;;;;;4995495;28;20040;-79
2023/04/02 01:15:58;;;;;;;19.63;17.13;;;6.20;99.90;;;;;;5001398;28;20033;-80
2023/04/02 01:18:55;;;;;;;20.27;15.48;;;6.20;99.90;;;;;;5003128;28;21090;-78
2023/04/02 01:21:37;;;;;;;18.10;14.65;;;6.20;99.90;;;;;;5021250;28;20048;-81
2023/04/02 01:24:07;;;;;;;17.85;15.35;;;6.20;99.90;;;;;;5003307;28;20060;-85
2023/04/02 01:26:39;;;;;;;18.17;13.60;;;6.20;99.90;;;;;;5005959;28;20501;-83
2023/04/02 01:29:13;;;;;;;16.17;14.52;;;6.20;99.90;;;;;;5011214;28;20811;-81
2023/04/02 01:31:40;;;;;;;15.50;12.98;;;6.10;99.90;;;;;;5009789;28;20041;-82
2023/04/02 01:34:10;;;;;;;16.05;11.95;;;6.10;99.90;;;;;;5009065;28;20041;-83
2023/04/02 01:36:47;;;;;;;15.27;13.15;;;6.10;99.90;;;;;;4999154;28;20052;-81
2023/04/02 01:39:22;;;;;;;14.77;12.00;;;6.00;99.90;;;;;;5017409;28;20500;-81
2023/04/02 01:42:00;;;;;;;17.23;13.45;;;6.00;99.90;;;;;;4997497;28;20586;-83
2023/04/02 01:44:33;;;;;;;18.83;14.30;;;6.00;99.90;;;;;;4988223;28;20040;-79
2023/04/02 01:47:04;;;;;;;15.48;13.60;;;5.90;99.90;;;;;;5001274;28;20044;-80
2023/04/02 01:49:30;;;;;;;16.45;14.27;;;5.90;99.90;;;;;;4986244;28;20531;-78
2023/04/02 01:51:58;;;;;;;19.58;15.30;;;5.90;99.90;;;;;;5013680;28;20047;-77
2023/04/02 01:54:27;;;;;;;17.70;14.32;;;5.90;99.90;;;;;;4984461;28;20537;-82
2023/04/02 01:56:56;;;;;;;20.48;14.55;;;5.90;99.90;;;;;;4997687;28;20506;-81
2023/04/02 01:59:22;;;;;;;17.02;14.45;;;5.90;99.90;;;;;;4984705;28;20399;-79
2023/04/02 02:02:00;;;;;;;16.77;15.02;;;5.90;99.90;;;;;;4995466;28;20043;-82
2023/04/02 02:04:28;;;;;;;19.77;15.30;;;5.90;99.90;;;;;;5003464;28;20451;-81
2023/04/02 02:06:59;;;;;;;19.45;16.15;;;5.80;99.90;;;;;;5035446;28;20051;-81
2023/04/02 02:09:29;;;;;;;18.40;16.38;;;5.80;99.90;;;;;;5015254;28;20423;-79
2023/04/02 02:11:57;;;;;;;21.10;16.50;;;5.80;99.90;;;;;;4992080;28;20032;-79
2023/04/02 02:14:26;;;;;;;23.27;16.33;;;5.90;99.90;;;;;;5001442;28;20033;-79
2023/04/02 02:16:55;;;;;;;18.35;15.57;;;5.90;99.90;;;;;;4983504;28;20051;-79
2023/04/02 02:19:28;;;;;;;19.45;17.08;;;5.90;99.90;;;;;;4983518;28;20542;-78
2023/04/02 02:22:02;;;;;;;25.08;21.05;;;5.90;99.90;;;;;;5027042;28;21254;-81
2023/04/02 02:24:32;;;;;;;29.27;23.30;;;5.90;99.90;;;;;;5040732;28;21114;-80
2023/04/02 02:27:21;;;;;;;25.73;22.67;;;5.90;99.90;;;;;;5002216;28;21879;-81
2023/04/02 02:30:11;;;;;;;34.30;25.60;;;5.90;99.90;;;;;;4998902;28;20024;-80
2023/04/02 02:32:55;;;;;;;32.20;25.02;;;5.90;99.90;;;;;;5009774;28;20041;-81
2023/04/02 02:35:30;;;;;;;29.55;25.15;;;5.90;99.90;;;;;;4999225;28;20044;-79
2023/04/02 02:38:27;;;;;;;31.00;24.10;;;5.90;99.90;;;;;;4999172;28;20036;-79
2023/04/02 02:41:01;;;;;;;25.45;21.88;;;5.80;99.90;;;;;;4995093;28;20045;-79
2023/04/02 02:43:28;;;;;;;;;;;5.80;99.90;;;;;;4983239;28;20036;-79
2023/04/02 02:45:56;;;;;;;25.83;20.58;;;5.80;99.90;;;;;;5021705;28;19916;-80
2023/04/02 02:48:33;;;;;;;25.90;20.83;;;5.80;99.90;;;;;;4986043;28;20041;-79
2023/04/02 02:51:03;;;;;;;24.27;20.40;;;5.80;99.90;;;;;;4998209;28;20043;-79
2023/04/02 02:53:30;;;;;;;21.17;17.55;;;5.70;99.90;;;;;;5009725;28;20044;-79
2023/04/02 02:55:59;;;;;;;18.08;15.73;;;5.70;99.90;;;;;;5000011;28;20041;-80
2023/04/02 02:58:32;;;;;;;20.20;17.05;;;5.60;99.90;;;;;;4983168;28;20041;-80
2023/04/02 03:01:06;;;;;;;18.20;15.68;;;5.60;99.90;;;;;;5015701;28;20040;-79
2023/04/02 03:03:35;;;;;;;22.00;16.63;;;5.60;99.90;;;;;;4995632;28;21172;-80
2023/04/02 03:06:07;;;;;;;18.27;13.25;;;5.60;99.90;;;;;;5006527;28;20372;-79
2023/04/02 03:08:41;;;;;;;18.77;15.40;;;5.60;99.90;;;;;;5001944;28;20040;-79
2023/04/02 03:11:18;;;;;;;15.93;13.82;;;5.50;99.90;;;;;;5006955;28;20090;-80
2023/04/02 03:13:49;;;;;;;18.60;13.75;;;5.50;99.90;;;;;;4992695;28;20047;-81
2023/04/02 03:16:35;;;;;;;18.30;14.85;;;5.50;99.90;;;;;;5015679;28;20052;-80
2023/04/02 03:19:15;;;;;;;16.80;13.48;;;5.50;99.90;;;;;;4998315;28;20620;-80
2023/04/02 03:21:48;;;;;;;18.05;13.93;;;5.50;99.90;;;;;;5011514;28;21025;-80
2023/04/02 03:24:31;;;;;;;16.90;13.52;;;5.40;99.90;;;;;;4988122;28;20407;-80
2023/04/02 03:27:07;;;;;;;17.58;13.95;;;5.40;99.90;;;;;;5006241;28;20051;-80
2023/04/02 03:29:48;;;;;;;17.42;13.90;;;5.40;99.90;;;;;;4992646;28;20063;-80
2023/04/02 03:32:27;;;;;;;17.02;13.18;;;5.40;99.90;;;;;;4978550;28;20044;-80
2023/04/02 03:35:17;;;;;;;17.38;13.90;;;5.40;99.90;;;;;;5035581;28;20032;-80
2023/04/02 03:37:53;;;;;;;17.52;14.23;;;5.40;99.90;;;;;;5035846;28;20035;-81
2023/04/02 03:40:25;;;;;;;16.60;14.70;;;5.40;99.90;;;;;;4993916;28;20044;-80
2023/04/02 03:42:58;;;;;;;19.95;17.35;;;5.40;99.90;;;;;;4992444;28;20044;-79
2023/04/02 03:45:37;;;;;;;21.13;15.80;;;5.40;99.90;;;;;;5020301;28;20961;-79
2023/04/02 03:48:12;;;;;;;19.73;16.92;;;5.40;99.90;;;;;;5018151;28;20495;-80
2023/04/02 03:50:58;;;;;;;20.83;16.08;;;5.30;99.90;;;;;;4999556;28;20625;-80
2023/04/02 03:53:27;;;;;;;23.35;16.83;;;5.30;99.90;;;;;;4977692;28;20048;-79
2023/04/02 03:55:54;;;;;;;20.58;17.27;;;5.20;99.90;;;;;;5013226;28;20040;-79
2023/04/02 03:58:27;;;;;;;19.92;15.18;;;5.20;99.90;;;;;;5012986;28;20039;-79
2023/04/02 04:01:07;;;;;;;21.17;17.13;;;5.20;99.90;;;;;;4995770;28;20040;-79
2023/04/02 04:03:44;;;;;;;21.30;18.13;;;5.10;99.90;;;;;;4978576;28;20039;-78
2023/04/02 04:06:20;;;;;;;22.50;16.48;;;5.10;99.90;;;;;;5012136;28;20039;-80
2023/04/02 04:08:54;;;;;;;23.77;19.40;;;5.10;99.90;;;;;;5023704;28;20566;-79
2023/04/02 04:11:28;;;;;;;21.45;18.40;;;5.10;99.90;;;;;;5003690;28;20024;-80
2023/04/02 04:14:11;;;;;;;21.70;19.25;;;5.10;99.90;;;;;;5002500;28;21270;-80
2023/04/02 04:16:41;;;;;;;25.08;19.02;;;5.10;99.90;;;;;;5004089;28;20723;-80
2023/04/02 04:19:35;;;;;;;23.83;19.38;;;5.10;99.90;;;;;;5019975;28;20644;-80
2023/04/02 04:22:17;;;;;;;26.00;19.05;;;5.10;99.90;;;;;;4981313;28;20048;-80
2023/04/02 04:24:46;;;;;;;24.65;19.90;;;5.10;99.90;;;;;;5006160;28;20036;-80
2023/04/02 04:27:32;;;;;;;26.95;19.02;;;5.10;99.90;;;;;;5008145;28;20040;-80
2023/04/02 04:30:27;;;;;;;16.52;14.15;;;5.10;99.90;;;;;;4993184;28;20040;-80
2023/04/02 04:33:09;;;;;;;20.73;14.65;;;5.10;99.90;;;;;;4996550;28;20028;-80
2023/04/02 04:35:42;;;;;;;16.98;15.15;;;5.10;99.90;;;;;;4990138;28;20040;-80
2023/04/02 04:38:26;;;;;;;21.10;14.90;;;5.00;99.90;;;;;;5019720;28;20035;-79
2023/04/02 04:40:59;;;;;;;18.60;14.45;;;4.90;99.90;;;;;;5001206;28;20131;-79
2023/04/02 04:43:32;;;;;;;14.98;11.05;;;4.90;99.90;;;;;;5012439;28;20044;-79
2023/04/02 04:46:04;;;;;;;15.38;9.88;;;4.90;99.90;;;;;;5006390;28;20083;-80
2023/04/02 04:48:41;;;;;;;14.48;10.02;;;4.80;99.90;;;;;;5009531;28;20039;-80
2023/04/02 04:51:18;;;;;;;13.15;9.23;;;4.70;99.90;;;;;;5000146;28;21061;-80
2023/04/02 04:53:48;;;;;;;11.50;8.15;;;4.70;99.90;;;;;;5000286;28;20037;-80
2023/04/02 04:56:21;;;;;;;11.98;7.68;;;4.70;99.90;;;;;;4991174;28;20041;-80
2023/04/02 04:59:18;;;;;;;13.65;7.53;;;4.60;99.90;;;;;;5002905;28;20047;-81
2023/04/02 05:02:25;;;;;;;9.98;5.80;;;4.60;99.90;;;;;;5014753;28;21019;-80
2023/04/02 05:05:25;;;;;;;8.98;6.53;;;4.50;99.90;;;;;;5011643;28;20990;-80
2023/04/02 05:08:20;;;;;;;11.80;7.25;;;4.40;99.90;;;;;;5014928;28;20041;-79
2023/04/02 05:11:23;;;;;;;8.77;6.40;;;4.40;99.90;;;;;;5005947;28;20480;-79
2023/04/02 05:13:57;;;;;;;8.85;6.15;;;4.30;99.90;;;;;;5017013;28;20036;-79
2023/04/02 05:16:39;;;;;;;6.57;4.95;;;4.30;99.90;;;;;;5003960;28;20028;-79
2023/04/02 05:19:30;;;;;;;8.45;4.90;;;4.30;99.90;;;;;;5002789;28;20067;-79
2023/04/02 05:22:34;;;;;;;12.30;6.63;;;4.20;99.90;;;;;;4980257;28;20048;-79
2023/04/02 05:25:24;;;;;;;9.85;5.38;;;4.20;99.90;;;;;;5004569;28;20055;-79
2023/04/02 05:28:16;;;;;;;8.15;4.82;;;4.20;99.90;;;;;;5005877;28;20044;-78
2023/04/02 05:30:45;;;;;;;7.30;4.38;;;4.10;99.90;;;;;;5016817;28;20055;-78
2023/04/02 05:33:24;;;;;;;8.15;5.15;;;4.10;99.90;;;;;;5005694;28;20075;-79
2023/04/02 05:36:11;;;;;;;11.70;4.65;;;4.10;99.90;;;;;;5019022;28;20612;-79
2023/04/02 05:38:47;;;;;;;8.52;5.03;;;4.10;99.90;;;;;;4998413;28;20495;-79
2023/04/02 05:41:38;;;;;;;5.30;3.92;;;4.10;99.90;;;;;;5016058;28;20435;-78
2023/04/02 05:44:14;;;;;;;8.45;4.10;;;4.00;99.90;;;;;;4999145;28;20040;-79
2023/04/02 05:46:50;;;;;;;10.13;3.92;;;4.00;99.90;;;;;;5003487;28;20040;-78
2023/04/02 05:49:44;;;;;;;6.32;3.72;;;4.00;99.90;;;;;;4989327;28;20028;-79
2023/04/02 05:52:16;;;;;;;7.63;3.42;;;4.00;99.90;;;;;;4987956;28;20044;-78
2023/04/02 05:54:43;;;;;;;;;;;4.00;99.90;;;;;;4987144;28;20052;-79
2023/04/02 05:57:20;;;;;;;8.60;3.22;;;4.00;99.90;;;;;;4998571;28;19923;-79
2023/04/02 05:59:52;;;;;;;7.65;2.78;;;4.00;99.90;;;;;;5017080;28;20500;-78
2023/04/02 06:02:51;;;;;;;5.53;1.85;;;4.00;99.90;;;;;;4991826;28;20754;-78
2023/04/02 06:05:22;;;;;;;9.10;2.42;;;4.00;99.90;;;;;;5002392;28;20468;-80
2023/04/02 06:07:52;;;;;;;4.88;2.53;;;4.00;99.90;;;;;;5018500;28;20025;-79
2023/04/02 06:10:32;;;;;;;5.10;2.28;;;4.00;99.90;;;;;;4990426;28;20034;-79
2023/04/02 06:13:07;;;;;;;5.00;2.05;;;4.00;99.90;;;;;;5012440;28;20029;-79
2023/04/02 06:15:38;;;;;;;5.57;1.75;;;3.90;99.90;;;;;;5014564;28;20132;-79
2023/04/02 06:18:28;;;;;;;5.20;2.20;;;3.90;99.90;;;;;;5001157;28;20036;-79
2023/04/02 06:20:56;;;;;;;7.68;2.40;;;3.90;99.90;;;;;;4998160;28;20049;-79
2023/04/02 06:23:32;;;;;;;6.88;2.80;;;4.00;99.90;;;;;;4992644;28;20043;-80
2023/04/02 06:26:08;;;;;;;5.90;2.60;;;4.00;99.90;;;;;;5017657;28;20040;-79
2023/04/02 06:28:46;;;;;;;5.83;2.77;;;3.90;99.90;;;;;;5020095;28;20036;-79
2023/04/02 06:31:34;;;;;;;4.05;2.20;;;3.90;99.90;;;;;;5004750;28;20036;-79
2023/04/02 06:34:06;;;;;;;7.03;2.70;;;3.90;99.90;;;;;;5003764;28;20044;-79
2023/04/02 06:36:33;;;;;;;7.35;2.60;;;3.80;99.90;;;;;;4999630;28;20043;-79
2023/04/02 06:39:07;;;;;;;4.32;1.95;;;3.70;99.90;;;;;;4983462;28;20037;-80
2023/04/02 06:41:35;;;;;;;5.93;2.70;;;3.80;99.90;;;;;;5010406;28;20451;-79
2023/04/02 06:44:19;;;;;;;;;;;3.80;99.90;;;;;;4999406;28;20036;-79
2023/04/02 06:47:25;;;;;;;5.45;2.25;;;3.70;99.90;;;;;;5016171;28;19923;-79
2023/04/02 06:50:02;;;;;;;5.25;2.55;;;3.70;99.90;;;;;;5018366;28;20526;-79
2023/04/02 06:52:36;;;;;;;7.28;2.45;;;3.70;99.90;;;;;;5032877;28;20020;-79
2023/04/02 06:55:23;;;;;;;4.40;2.03;;;3.70;99.90;;;;;;5000808;28;20041;-79
2023/04/02 06:57:49;;;;;;;7.03;2.47;;;3.70;99.90;;;;;;5013808;28;20523;-79
2023/04/02 07:00:40;;;;;;;6.50;2.33;;;3.70;99.90;;;;;;4999380;28;20036;-79
2023/04/02 07:03:22;;;;;;;6.30;1.80;;;3.80;99.90;;;;;;5010595;28;20048;-87
2023/04/02 07:05:48;;;;;;;6.57;2.20;;;3.80;99.90;;;;;;4996879;28;20047;-80
2023/04/02 07:08:15;;;;;;;7.85;2.95;;;3.80;99.90;;;;;;4997714;28;20123;-81
2023/04/02 07:10:41;;;;;;;6.57;2.95;;;3.90;99.90;;;;;;4998757;28;20040;-80
2023/04/02 07:13:19;;;;;;;7.47;2.35;;;3.90;99.90;;;;;;4997421;28;20036;-81
2023/04/02 07:15:49;;;;;;;11.82;3.53;;;3.90;99.90;;;;;;4986899;28;20045;-81
2023/04/02 07:18:30;;;;;;;4.30;2.53;;;4.00;99.90;;;;;;5014617;28;20047;-81
2023/04/02 07:20:59;;;;;;;;;;;4.10;99.90;;;;;;5032398;28;20055;-81
2023/04/02 07:23:26;;;;;;;8.20;3.30;;;4.20;99.90;;;;;;4991817;28;19923;-81
2023/04/02 07:25:54;;;;;;;7.07;2.70;;;4.20;99.90;;;;;;5032963;28;20036;-80
2023/04/02 07:28:21;;;;;;;7.25;3.45;;;4.20;99.90;;;;;;5023966;28;20024;-80
2023/04/02 07:30:47;;;;;;;8.27;3.65;;;4.20;99.90;;;;;;5002472;28;20043;-80
2023/04/02 07:33:15;;;;;;;9.55;3.85;;;4.20;99.90;;;;;;4998185;28;20139;-80
2023/04/02 07:35:42;;;;;;;11.25;3.97;;;4.30;99.90;;;;;;5019545;28;20399;-81
2023/04/02 07:38:08;;;;;;;10.43;4.25;;;4.40;99.90;;;;;;5013985;28;21020;-80
2023/04/02 07:40:35;;;;;;;7.60;3.60;;;4.40;99.90;;;;;;5013159;28;20407;-79
2023/04/02 07:43:02;;;;;;;6.40;3.55;;;4.50;99.90;;;;;;5009502;28;20033;-81
2023/04/02 07:45:28;;;;;;;10.35;4.00;;;4.40;99.90;;;;;;5000546;28;20043;-81
2023/04/02 07:47:55;;;;;;;6.05;3.33;;;4.50;99.90;;;;;;5013537;28;20029;-80
2023/04/02 07:50:22;;;;;;;11.27;4.13;;;4.50;99.90;;;;;;5014672;28;20443;-80
2023/04/02 07:52:49;;;;;;;7.40;4.15;;;4.60;99.90;;;;;;4998233;28;20488;-82
2023/04/02 07:55:16;;;;;;;6.43;4.43;;;4.70;99.90;;;;;;5037873;28;20040;-81
2023/04/02 07:57:53;;;;;;;6.38;3.97;;;4.80;99.90;;;;;;4998388;28;20037;-79
2023/04/02 08:00:21;;;;;;;5.68;4.03;;;4.70;99.90;;;;;;5012250;28;20051;-81
2023/04/02 08:02:47;;;;;;;6.65;3.83;;;4.60;99.90;;;;;;5009057;28;20036;-79
2023/04/02 08:05:14;;;;;;;6.32;4.22;;;4.60;99.90;;;;;;5013101;28;20623;-80
2023/04/02 08:07:40;;;;;;;7.55;4.38;;;4.50;99.90;;;;;;5015386;28;20495;-79
2023/04/02 08:10:09;;;;;;;8.55;3.58;;;4.50;99.90;;;;;;5000273;28;20033;-82
2023/04/02 08:12:36;;;;;;;8.00;4.00;;;4.40;99.90;;;;;;4977679;28;20039;-82
2023/04/02 08:15:05;;;;;;;6.32;4.20;;;4.50;99.90;;;;;;5019576;28;20049;-80
2023/04/02 08:17:32;;;;;;;7.85;3.95;;;4.50;99.90;;;;;;5017714;28;20393;-82
2023/04/02 08:20:03;;;;;;;7.72;4.03;;;4.60;99.90;;;;;;5012813;28;20068;-79
2023/04/02 08:22:29;;;;;;;7.78;3.35;;;4.60;99.90;;;;;;5009776;28;20032;-81
2023/04/02 08:24:56;;;;;;;7.65;2.72;;;4.60;99.90;;;;;;5014533;28;20489;-80
2023/04/02 08:27:23;;;;;;;7.85;3.22;;;4.50;99.90;;;;;;4998351;28;20044;-80
2023/04/02 08:29:50;;;;;;;7.20;3.08;;;4.60;99.90;;;;;;5013127;28;20039;-79
2023/04/02 08:32:16;;;;;;;6.07;4.25;;;4.60;99.90;;;;;;5007915;28;20052;-80
2023/04/02 08:34:44;;;;;;;3.67;2.47;;;4.70;99.90;;;;;;5005578;28;20584;-80
2023/04/02 08:37:11;;;;;;;7.50;3.53;;;4.80;99.90;;;;;;5016832;28;20486;-80
2023/04/02 08:39:39;;;;;;;9.65;3.67;;;5.00;99.90;;;;;;5017402;28;20480;-80
2023/04/02 08:42:11;;;;;;;7.32;3.53;;;5.00;99.90;;;;;;4991634;28;20056;-79
2023/04/02 08:44:48;;;;;;;6.63;3.75;;;5.00;99.90;;;;;;4998141;28;20033;-79
2023/04/02 08:47:18;;;;;;;10.15;3.65;;;5.00;99.90;;;;;;5014217;28;20527;-80
2023/04/02 08:49:55;;;;;;;9.23;4.65;;;5.10;99.90;;;;;;5014573;28;20380;-81
2023/04/02 08:52:30;;;;;;;9.40;4.50;;;5.20;99.90;;;;;;4995643;28;21041;-80
2023/04/02 08:54:59;;;;;;;8.02;3.70;;;5.20;99.90;;;;;;5007442;28;20348;-81
2023/04/02 08:57:56;;;;;;;6.45;3.25;;;5.20;99.90;;;;;;5007274;28;20056;-80
2023/04/02 09:00:41;;;;;;;5.97;3.20;;;5.30;99.90;;;;;;5001955;28;20037;-80
2023/04/02 09:03:37;;;;;;;8.02;3.25;;;5.40;99.90;;;;;;5011090;28;20408;-80
2023/04/02 09:06:08;;;;;;;6.50;2.72;;;5.40;99.90;;;;;;5015790;28;20049;-80
2023/04/02 09:08:35;;;;;;;5.63;3.17;;;5.50;99.90;;;;;;5037148;28;20040;-80
2023/04/02 09:11:12;;;;;;;5.95;3.33;;;5.50;99.90;;;;;;5015780;28;20550;-80
2023/04/02 09:13:45;;;;;;;6.53;3.42;;;5.50;99.90;;;;;;5029629;28;20041;-79
2023/04/02 09:16:15;;;;;;;7.60;3.03;;;5.60;99.90;;;;;;5021964;28;20048;-80
2023/04/02 09:18:43;;;;;;;6.88;2.78;;;5.70;99.90;;;;;;5020070;28;20368;-80
2023/04/02 09:21:35;;;;;;;5.60;3.22;;;5.80;99.90;;;;;;5004164;28;20048;-79
2023/04/02 09:24:03;;;;;;;7.95;3.75;;;5.80;99.90;;;;;;5015373;28;21319;-80
2023/04/02 09:26:32;;;;;;;5.03;2.50;;;5.90;99.90;;;;;;5001220;28;20043;-79
2023/04/02 09:29:10;;;;;;;5.50;2.88;;;6.10;99.90;;;;;;5016439;28;20029;-80
2023/04/02 09:31:42;;;;;;;7.45;1.75;;;6.30;99.90;;;;;;5011788;28;20434;-80
2023/04/02 09:34:40;;;;;;;7.60;2.47;;;6.30;99.90;;;;;;5014339;28;20052;-79
2023/04/02 09:37:24;;;;;;;6.18;2.15;;;6.30;99.90;;;;;;4969313;28;20542;-81
2023/04/02 09:39:50;;;;;;;8.55;2.70;;;6.40;99.90;;;;;;5042889;28;20029;-78
2023/04/02 09:42:35;;;;;;;2.97;1.83;;;6.50;99.90;;;;;;5019070;28;20040;-78
2023/04/02 09:45:22;;;;;;;5.28;1.80;;;6.60;99.90;;;;;;5002975;28;20047;-81
2023/04/02 09:47:50;;;;;;;8.15;1.50;;;6.50;99.90;;;;;;5001599;28;20059;-80
2023/04/02 09:50:19;;;;;;;4.90;1.63;;;6.50;99.90;;;;;;5035838;28;20032;-79
2023/04/02 09:52:47;;;;;;;5.78;1.25;;;6.50;99.90;;;;;;5012673;28;20037;-80
2023/04/02 09:55:14;;;;;;;4.22;1.80;;;6.50;99.90;;;;;;5036326;28;20043;-80
2023/04/02 09:57:42;;;;;;;4.18;2.00;;;6.60;99.90;;;;;;5038745;28;20051;-80
2023/04/02 10:00:25;;;;;;;4.55;1.67;;;6.70;99.90;;;;;;5003827;28;20036;-80
2023/04/02 10:03:03;;;;;;;5.30;1.27;;;6.70;99.90;;;;;;4982957;28;20025;-80
2023/04/02 10:05:31;;;;;;;5.82;1.40;;;6.60;99.90;;;;;;5016842;28;20036;-79
2023/04/02 10:08:16;;;;;;;3.83;1.60;;;6.40;99.90;;;;;;5014577;28;20036;-80
2023/04/02 10:10:47;;;;;;;4.30;1.15;;;6.40;99.90;;;;;;4985702;28;20044;-79
2023/04/02 10:13:29;;;;;;;3.35;1.40;;;6.20;99.90;;;;;;5013453;28;20391;-79
2023/04/02 10:16:09;;;;;;;3.70;1.02;;;6.20;99.90;;;;;;5036704;28;20502;-79
2023/04/02 10:18:47;;;;;;;4.80;1.55;;;6.20;99.90;;;;;;5002210;28;20033;-78
2023/04/02 10:21:30;;;;;;;4.10;1.40;;;6.30;99.90;;;;;;5003193;28;20067;-78
2023/04/02 10:23:58;;;;;;;5.45;1.10;;;6.50;99.90;;;;;;5000613;28;20029;-78
2023/04/02 10:26:40;;;;;;;5.55;1.45;;;6.80;99.90;;;;;;5014458;28;20041;-77
2023/04/02 10:29:09;;;;;;;5.95;1.40;;;7.30;99.90;;;;;;5014354;28;20051;-77
2023/04/02 10:31:53;;;;;;;4.68;1.40;;;7.80;99.90;;;;;;5010767;28;20040;-79
2023/04/02 10:34:32;;;;;;;6.25;1.90;;;8.20;99.90;;;;;;5034826;28;20039;-79
2023/04/02 10:37:23;;;;;;;3.75;1.88;;;8.80;99.90;;;;;;5016351;28;20036;-79
2023/04/02 10:39:57;;;;;;;5.13;1.30;;;9.00;99.90;;;;;;5002480;28;20040;-78
2023/04/02 10:42:37;;;;;;;5.65;1.90;;;9.10;99.90;;;;;;5013650;28;20032;-78
2023/04/02 10:45:21;;;;;;;5.25;1.65;;;9.10;99.90;;;;;;4999580;28;22958;-78
2023/04/02 10:47:56;;;;;;;5.80;2.15;;;8.90;99.90;;;;;;5034864;28;20067;-78
2023/04/02 10:50:37;;;;;;;5.05;1.90;;;8.90;99.90;;;;;;5011915;28;20033;-77
2023/04/02 10:53:25;;;;;;;3.67;1.55;;;8.90;99.90;;;;;;5007277;28;20510;-79
2023/04/02 10:56:02;;;;;;;5.93;2.47;;;8.80;99.90;;;;;;5015007;28;20048;-79
2023/04/02 10:58:33;;;;;;;5.60;1.83;;;8.80;99.90;;;;;;4997093;28;20040;-77
2023/04/02 11:01:05;;;;;;;8.97;1.60;;;9.00;99.90;;;;;;5035672;28;20048;-78
2023/04/02 11:03:38;;;;;;;6.77;1.07;;;9.10;99.90;;;;;;5013627;28;20036;-78
2023/04/02 11:06:15;;;;;;;4.97;1.15;;;9.40;99.90;;;;;;5014299;28;20654;-78
2023/04/02 11:08:45;;;;;;;4.38;1.35;;;9.90;99.90;;;;;;4998216;28;20488;-78
2023/04/02 11:11:21;;;;;;;7.47;1.38;;;10.30;99.90;;;;;;5012000;28;20102;-78
2023/04/02 11:14:00;;;;;;;3.50;0.85;;;10.80;99.90;;;;;;5027878;28;20033;-77
2023/04/02 11:16:26;;;;;;;3.67;1.13;;;11.20;99.90;;;;;;4998222;28;20095;-77
2023/04/02 11:19:08;;;;;;;3.08;0.82;;;11.60;99.90;;;;;;4985673;28;20044;-76
2023/04/02 11:21:39;;;;;;;4.00;0.90;;;12.00;99.90;;;;;;5033645;28;20056;-77
2023/04/02 11:24:35;;;;;;;12.15;1.10;;;12.20;99.90;;;;;;5018663;28;20059;-77
2023/04/02 11:27:13;;;;;;;3.83;0.60;;;12.40;99.90;;;;;;5015146;28;20051;-75
2023/04/02 11:29:45;;;;;;;3.22;0.60;;;12.60;99.90;;;;;;5012169;28;20037;-75
2023/04/02 11:32:21;;;;;;;2.13;0.65;;;12.70;99.90;;;;;;5007714;28;20353;-73
2023/04/02 11:34:47;;;;;;;4.03;0.77;;;12.80;99.90;;;;;;5033131;28;20824;-73
2023/04/02 11:37:30;;;;;;;4.57;0.73;;;12.70;99.90;;;;;;5034280;28;20033;-74
2023/04/02 11:39:58;;;;;;;5.47;1.17;;;12.80;99.90;;;;;;5013828;28;20037;-73
2023/04/02 11:42:33;;;;;;;5.03;0.98;;;13.00;99.90;;;;;;5015272;28;20487;-74
2023/04/02 11:45:20;;;;;;;4.28;0.73;;;13.50;99.90;;;;;;5017723;28;20056;-74
2023/04/02 11:47:59;;;;;;;2.15;0.80;;;13.90;99.90;;;;;;5014476;28;20040;-74
2023/04/02 11:50:33;;;;;;;5.32;0.70;;;13.90;99.90;;;;;;4993684;28;20044;-74
2023/04/02 11:53:13;;;;;;;4.72;0.85;;;14.00;99.90;;;;;;4991987;28;20048;-74
2023/04/02 11:55:45;;;;;;;5.78;1.00;;;14.30;99.90;;;;;;5013225;28;20040;-74
2023/04/02 11:58:21;;;;;;;4.28;0.73;;;14.60;99.90;;;;;;4999477;28;20044;-74
2023/04/02 12:00:57;;;;;;;2.78;0.70;;;14.90;99.90;;;;;;5013770;28;20048;-76
2023/04/02 12:03:41;;;;;;;4.40;1.98;;;15.10;99.90;;;;;;5012418;28;20051;-76
2023/04/02 12:06:33;;;;;;;4.97;1.85;;;15.20;99.90;;;;;;5014767;28;20048;-75
2023/04/02 12:09:23;;;;;;;2.57;0.63;;;15.30;99.90;;;;;;4981568;28;20526;-74
2023/04/02 12:11:52;;;;;;;4.00;0.70;;;15.70;99.90;;;;;;5027508;28;20056;-74
2023/04/02 12:14:36;;;;;;;2.47;0.70;;;16.10;99.90;;;;;;4999218;28;20484;-73
2023/04/02 12:17:12;;;;;;;3.42;0.50;;;16.60;99.90;;;;;;5013322;28;20497;-73
2023/04/02 12:19:39;;;;;;;3.58;0.68;;;16.60;99.90;;;;;;5014036;28;20067;-74
2023/04/02 12:22:17;;;;;;;4.85;0.65;;;16.60;99.90;;;;;;4995152;28;20615;-74
2023/04/02 12:24:46;;;;;;;3.10;0.57;;;16.60;99.90;;;;;;4982480;28;20044;-73
2023/04/02 12:27:22;;;;;;;3.35;0.70;;;16.50;98.10;;;;;;5019701;28;20048;-73
2023/04/02 12:29:51;;;;;;;2.83;0.80;;;16.60;97.80;;;;;;5036523;28;20040;-74
2023/04/02 12:32:28;;;;;;;4.90;0.70;;;16.80;98.40;;;;;;5009599;28;20032;-74
2023/04/02 12:34:56;;;;;;;5.20;0.80;;;17.10;94.40;;;;;;5017554;28;20044;-73
2023/04/02 12:37:27;;;;;;;3.92;0.68;;;17.10;94.90;;;;;;5001680;28;20047;-73
2023/04/02 12:39:57;;;;;;;3.38;0.50;;;17.10;91.60;;;;;;5016675;28;20400;-73
2023/04/02 12:42:31;;;;;;;1.90;0.60;;;17.20;92.00;;;;;;5015296;28;20051;-73
2023/04/02 12:44:58;;;;;;;5.82;0.70;;;17.40;91.70;;;;;;5022378;28;20040;-73
2023/04/02 12:47:26;;;;;;;2.90;0.80;;;17.80;90.40;;;;;;5040735;28;20036;-73
2023/04/02 12:49:54;;;;;;;2.60;0.50;;;17.80;86.90;;;;;;5035939;28;20040;-72
2023/04/02 12:52:27;;;;;;;4.68;0.98;;;17.80;86.40;;;;;;5009862;28;20992;-73
2023/04/02 12:55:02;;;;;;;4.60;1.13;;;17.90;85.80;;;;;;5036925;28;20035;-74
2023/04/02 12:57:28;;;;;;;2.35;0.50;;;18.30;83.00;;;;;;5016669;28;20028;-82
2023/04/02 12:59:57;;;;;;;5.85;2.10;;;18.30;82.20;;;;;;5016930;28;20037;-75
2023/04/02 13:02:25;;;;;;;2.88;0.90;;;18.40;79.90;;;;;;5012915;28;20041;-73
2023/04/02 13:04:54;;;;;;;3.30;0.90;;;18.60;79.80;;;;;;5022301;28;20036;-74
2023/04/02 13:07:24;;;;;;;5.25;2.28;;;18.90;79.00;;;;;;5021211;28;20033;-75
2023/04/02 13:10:17;;;;;;;5.20;1.77;;;19.20;76.70;;;;;;5037502;28;20048;-75
2023/04/02 13:12:43;;;;;;;3.22;1.00;;;19.40;75.40;;;;;;5032270;28;20052;-75
2023/04/02 13:15:26;;;;;;;2.38;0.50;;;19.60;74.70;;;;;;5016029;28;20039;-74
2023/04/02 13:18:10;;;;;;;3.22;0.57;;;19.70;72.40;;;;;;5015994;28;20514;-73
2023/04/02 13:20:39;;;;;;;4.47;0.70;;;19.80;69.60;;;;;;4997663;28;20063;-73
2023/04/02 13:23:27;;;;;;;4.70;0.60;;;19.60;67.90;;;;;;5032681;28;20056;-73
2023/04/02 13:25:55;;;;;;;2.55;0.40;;;19.50;66.80;;;;;;5021107;28;20036;-73
2023/04/02 13:28:22;;;;;;;2.20;0.55;;;19.40;68.10;;;;;;5018248;28;20036;-73
2023/04/02 13:30:48;;;;;;;2.08;0.40;;;19.50;69.10;;;;;;5013736;28;20037;-73